Time,TemperatureF,DewpointF,PressureIn,WindDirection,WindDirectionDegrees,WindSpeedMPH,WindSpeedGustMPH,Humidity,HourlyPrecipIn,Conditions,Clouds,dailyrainin,SoftwareType,DateUTC
2013-12-18 00:01:00,13.1,10.2,30.10,WNW,293,0.0,5.0,88,0.00,,,0.00,Wunderground v.1.15,2013-12-18 05:01:00,
2013-12-18 00:02:00,13.1,10.2,30.10,WNW,293,1.0,5.0,88,0.00,,,0.00,Wunderground v.1.15,2013-12-18 05:02:00,
2013-12-18 00:04:00,13.1,10.2,30.10,WNW,293,1.0,5.0,88,0.00,,,0.00,Wunderground v.1.15,2013-12-18 05:04:00,
2013-12-18 00:05:00,13.1,10.2,30.10,WNW,293,1.0,5.0,88,0.00,,,0.00,Wunderground v.1.15,2013-12-18 05:05:00,
2013-12-18 00:08:00,13.2,10.3,30.10,WNW,293,1.0,5.0,88,0.00,,,0.00,Wunderground v.1.15,2013-12-18 05:08:00,
2013-12-18 00:11:00,13.2,10.3,30.10,WNW,293,0.0,5.0,88,0.00,,,0.00,Wunderground v.1.15,2013-12-18 05:11:00,
2013-12-18 00:16:00,13.2,10.1,30.09,WNW,293,0.0,5.0,87,0.00,,,0.00,Wunderground v.1.15,2013-12-18 05:16:00,
2013-12-18 00:22:00,13.2,10.1,30.08,WNW,293,0.0,5.0,87,0.00,,,0.00,Wunderground v.1.15,2013-12-18 05:22:00,
2013-12-18 00:28:00,13.0,9.9,30.08,WNW,293,0.0,5.0,87,0.00,,,0.00,Wunderground v.1.15,2013-12-18 05:28:00,
2013-12-18 00:34:00,13.1,10.2,30.08,WNW,293,0.0,5.0,88,0.00,,,0.00,Wunderground v.1.15,2013-12-18 05:34:00,
2013-12-18 00:40:00,13.1,10.0,30.08,WNW,293,0.0,5.0,87,0.00,,,0.00,Wunderground v.1.15,2013-12-18 05:40:00,
2013-12-18 00:46:00,13.0,9.9,30.08,WNW,293,0.0,5.0,87,0.00,,,0.00,Wunderground v.1.15,2013-12-18 05:46:00,
2013-12-18 00:52:00,13.0,9.9,30.08,WNW,293,0.0,5.0,87,0.00,,,0.00,Wunderground v.1.15,2013-12-18 05:52:00,
2013-12-18 00:58:00,13.1,10.0,30.08,WNW,293,0.0,5.0,87,0.00,,,0.00,Wunderground v.1.15,2013-12-18 05:58:00,
2013-12-18 01:03:00,13.1,10.0,30.08,WNW,293,1.0,4.0,87,0.00,,,0.00,Wunderground v.1.15,2013-12-18 06:03:00,
2013-12-18 01:09:00,13.1,10.0,30.09,WNW,293,2.0,4.0,87,0.00,,,0.00,Wunderground v.1.15,2013-12-18 06:09:00,
2013-12-18 01:15:00,13.1,10.0,30.08,WNW,293,1.0,4.0,87,0.00,,,0.00,Wunderground v.1.15,2013-12-18 06:15:00,
2013-12-18 01:21:00,13.0,9.9,30.08,WNW,293,1.0,4.0,87,0.00,,,0.00,Wunderground v.1.15,2013-12-18 06:21:00,
2013-12-18 01:27:00,12.9,9.8,30.08,WNW,293,1.0,4.0,87,0.00,,,0.00,Wunderground v.1.15,2013-12-18 06:27:00,
2013-12-18 01:33:00,12.9,9.8,30.09,WNW,293,1.0,4.0,87,0.00,,,0.00,Wunderground v.1.15,2013-12-18 06:33:00,
2013-12-18 01:39:00,13.1,10.0,30.08,WNW,293,0.0,4.0,87,0.00,,,0.00,Wunderground v.1.15,2013-12-18 06:39:00,
2013-12-18 01:45:00,13.2,10.1,30.08,WNW,293,0.0,4.0,87,0.00,,,0.00,Wunderground v.1.15,2013-12-18 06:45:00,
2013-12-18 01:51:00,13.2,10.1,30.08,WNW,293,1.0,4.0,87,0.00,,,0.00,Wunderground v.1.15,2013-12-18 06:51:00,
2013-12-18 01:57:00,13.1,9.7,30.09,WNW,293,1.0,4.0,86,0.00,,,0.00,Wunderground v.1.15,2013-12-18 06:57:00,
2013-12-18 02:03:00,13.2,10.1,30.10,WNW,293,1.0,5.0,87,0.00,,,0.00,Wunderground v.1.15,2013-12-18 07:03:00,
2013-12-18 02:09:00,13.3,10.2,30.10,WNW,293,3.0,5.0,87,0.00,,,0.00,Wunderground v.1.15,2013-12-18 07:09:00,
2013-12-18 02:14:00,13.4,10.3,30.10,WNW,293,2.0,4.0,87,0.00,,,0.00,Wunderground v.1.15,2013-12-18 07:14:00,
2013-12-18 02:20:00,13.4,10.0,30.11,WNW,293,2.0,2.0,86,0.00,,,0.00,Wunderground v.1.15,2013-12-18 07:20:00,
2013-12-18 02:26:00,13.3,9.9,30.11,WNW,293,2.0,4.0,86,0.00,,,0.00,Wunderground v.1.15,2013-12-18 07:26:00,
2013-12-18 02:32:00,13.4,10.0,30.11,WNW,293,1.0,4.0,86,0.00,,,0.00,Wunderground v.1.15,2013-12-18 07:32:00,
2013-12-18 02:38:00,13.5,10.1,30.11,WNW,293,0.0,4.0,86,0.00,,,0.00,Wunderground v.1.15,2013-12-18 07:38:00,
2013-12-18 02:44:00,13.5,10.1,30.10,WNW,293,0.0,4.0,86,0.00,,,0.00,Wunderground v.1.15,2013-12-18 07:44:00,
2013-12-18 02:50:00,13.7,10.5,30.11,WNW,293,0.0,4.0,87,0.00,,,0.00,Wunderground v.1.15,2013-12-18 07:50:00,
2013-12-18 02:56:00,13.7,10.3,30.10,WNW,293,0.0,4.0,86,0.00,,,0.00,Wunderground v.1.15,2013-12-18 07:56:00,
2013-12-18 03:02:00,13.6,10.2,30.10,WNW,293,0.0,4.0,86,0.00,,,0.00,Wunderground v.1.15,2013-12-18 08:02:00,
2013-12-18 03:08:00,13.6,10.2,30.09,WNW,293,0.0,4.0,86,0.00,,,0.00,Wunderground v.1.15,2013-12-18 08:08:00,
2013-12-18 03:14:00,13.4,10.0,30.09,WNW,293,0.0,4.0,86,0.00,,,0.00,Wunderground v.1.15,2013-12-18 08:14:00,
2013-12-18 03:20:00,13.1,10.0,30.09,WNW,293,0.0,4.0,87,0.00,,,0.00,Wunderground v.1.15,2013-12-18 08:20:00,
2013-12-18 03:26:00,13.0,9.9,30.08,WNW,293,0.0,4.0,87,0.00,,,0.00,Wunderground v.1.15,2013-12-18 08:26:00,
2013-12-18 03:32:00,12.8,9.7,30.08,WNW,293,0.0,4.0,87,0.00,,,0.00,Wunderground v.1.15,2013-12-18 08:32:00,
2013-12-18 03:37:00,12.8,9.7,30.08,WNW,293,0.0,4.0,87,0.00,,,0.00,Wunderground v.1.15,2013-12-18 08:37:00,
2013-12-18 03:43:00,12.6,9.5,30.08,WNW,293,0.0,4.0,87,0.00,,,0.00,Wunderground v.1.15,2013-12-18 08:43:00,
2013-12-18 03:49:00,12.4,9.3,30.08,WNW,293,0.0,4.0,87,0.00,,,0.00,Wunderground v.1.15,2013-12-18 08:49:00,
2013-12-18 03:55:00,12.1,9.0,30.08,WNW,293,0.0,4.0,87,0.00,,,0.00,Wunderground v.1.15,2013-12-18 08:55:00,
2013-12-18 04:01:00,11.9,8.8,30.08,WNW,293,0.0,4.0,87,0.00,,,0.00,Wunderground v.1.15,2013-12-18 09:01:00,
2013-12-18 04:07:00,11.8,8.7,30.07,WNW,293,0.0,4.0,87,0.00,,,0.00,Wunderground v.1.15,2013-12-18 09:07:00,
2013-12-18 04:13:00,11.6,8.5,30.08,WNW,293,0.0,4.0,87,0.00,,,0.00,Wunderground v.1.15,2013-12-18 09:13:00,
2013-12-18 04:19:00,11.4,8.3,30.08,WNW,293,0.0,4.0,87,0.00,,,0.00,Wunderground v.1.15,2013-12-18 09:19:00,
2013-12-18 04:25:00,11.3,8.4,30.08,WNW,293,0.0,4.0,88,0.00,,,0.00,Wunderground v.1.15,2013-12-18 09:25:00,
2013-12-18 04:31:00,11.2,8.3,30.08,WNW,293,0.0,4.0,88,0.00,,,0.00,Wunderground v.1.15,2013-12-18 09:31:00,
2013-12-18 04:36:00,11.0,8.1,30.08,WNW,293,0.0,4.0,88,0.00,,,0.00,Wunderground v.1.15,2013-12-18 09:36:00,
2013-12-18 04:42:00,10.9,8.0,30.09,WNW,293,0.0,4.0,88,0.00,,,0.00,Wunderground v.1.15,2013-12-18 09:42:00,
2013-12-18 04:48:00,10.7,7.8,30.09,WNW,293,0.0,4.0,88,0.00,,,0.00,Wunderground v.1.15,2013-12-18 09:48:00,
2013-12-18 04:53:00,10.7,7.8,30.09,WNW,293,0.0,4.0,88,0.00,,,0.00,Wunderground v.1.15,2013-12-18 09:53:00,
2013-12-18 04:59:00,10.6,7.7,30.08,WNW,293,0.0,4.0,88,0.00,,,0.00,Wunderground v.1.15,2013-12-18 09:59:00,
2013-12-18 05:05:00,10.6,7.7,30.09,WNW,293,0.0,4.0,88,0.00,,,0.00,Wunderground v.1.15,2013-12-18 10:05:00,
2013-12-18 05:11:00,10.6,7.7,30.09,WNW,293,0.0,4.0,88,0.00,,,0.00,Wunderground v.1.15,2013-12-18 10:11:00,
2013-12-18 05:16:00,10.5,7.6,30.08,WNW,293,0.0,4.0,88,0.00,,,0.00,Wunderground v.1.15,2013-12-18 10:16:00,
2013-12-18 05:21:00,10.4,7.6,30.08,WNW,293,0.0,4.0,88,0.00,,,0.00,Wunderground v.1.15,2013-12-18 10:21:00,
2013-12-18 05:27:00,10.3,7.5,30.08,WNW,293,0.0,4.0,88,0.00,,,0.00,Wunderground v.1.15,2013-12-18 10:27:00,
2013-12-18 05:33:00,10.2,7.4,30.08,WNW,293,0.0,4.0,88,0.00,,,0.00,Wunderground v.1.15,2013-12-18 10:33:00,
2013-12-18 05:39:00,10.2,7.6,30.09,WNW,293,0.0,4.0,89,0.00,,,0.00,Wunderground v.1.15,2013-12-18 10:39:00,
2013-12-18 05:45:00,10.2,7.4,30.09,WNW,293,0.0,4.0,88,0.00,,,0.00,Wunderground v.1.15,2013-12-18 10:45:00,
2013-12-18 05:50:00,9.9,7.1,30.09,WNW,293,0.0,4.0,88,0.00,,,0.00,Wunderground v.1.15,2013-12-18 10:50:00,
2013-12-18 05:56:00,9.8,7.2,30.09,WNW,293,0.0,4.0,89,0.00,,,0.00,Wunderground v.1.15,2013-12-18 10:56:00,
2013-12-18 06:02:00,9.8,7.0,30.09,WNW,293,0.0,4.0,88,0.00,,,0.00,Wunderground v.1.15,2013-12-18 11:02:00,
2013-12-18 06:07:00,9.8,7.2,30.09,WNW,293,0.0,4.0,89,0.00,,,0.00,Wunderground v.1.15,2013-12-18 11:07:00,
2013-12-18 06:13:00,10.1,7.5,30.09,WNW,293,0.0,4.0,89,0.00,,,0.00,Wunderground v.1.15,2013-12-18 11:13:00,
2013-12-18 06:19:00,9.9,7.1,30.08,WNW,293,0.0,4.0,88,0.00,,,0.00,Wunderground v.1.15,2013-12-18 11:19:00,
2013-12-18 06:25:00,9.7,6.9,30.08,WNW,293,0.0,4.0,88,0.00,,,0.00,Wunderground v.1.15,2013-12-18 11:25:00,
2013-12-18 06:28:00,9.6,6.8,30.08,WNW,293,0.0,4.0,88,0.00,,,0.00,Wunderground v.1.15,2013-12-18 11:28:00,
2013-12-18 06:33:00,9.6,6.8,30.09,WNW,293,0.0,4.0,88,0.00,,,0.00,Wunderground v.1.15,2013-12-18 11:33:00,
2013-12-18 06:39:00,9.9,7.3,30.09,WNW,293,0.0,4.0,89,0.00,,,0.00,Wunderground v.1.15,2013-12-18 11:39:00,
2013-12-18 06:45:00,10.0,7.4,30.09,WNW,293,0.0,4.0,89,0.00,,,0.00,Wunderground v.1.15,2013-12-18 11:45:00,
2013-12-18 06:51:00,10.2,7.6,30.09,WNW,293,0.0,4.0,89,0.00,,,0.00,Wunderground v.1.15,2013-12-18 11:51:00,
2013-12-18 06:57:00,10.2,7.6,30.09,WNW,293,0.0,4.0,89,0.00,,,0.00,Wunderground v.1.15,2013-12-18 11:57:00,
2013-12-18 07:03:00,10.2,7.6,30.09,WNW,293,0.0,4.0,89,0.00,,,0.00,Wunderground v.1.15,2013-12-18 12:03:00,
2013-12-18 07:09:00,10.3,7.7,30.09,WNW,293,0.0,4.0,89,0.00,,,0.00,Wunderground v.1.15,2013-12-18 12:09:00,
2013-12-18 07:15:00,10.6,8.0,30.09,WNW,293,0.0,4.0,89,0.00,,,0.00,Wunderground v.1.15,2013-12-18 12:15:00,
2013-12-18 07:21:00,11.0,8.6,30.09,WNW,293,0.0,4.0,90,0.00,,,0.00,Wunderground v.1.15,2013-12-18 12:21:00,
2013-12-18 07:27:00,11.2,8.6,30.09,WNW,293,0.0,4.0,89,0.00,,,0.00,Wunderground v.1.15,2013-12-18 12:27:00,
2013-12-18 07:33:00,11.2,8.3,30.10,WNW,293,0.0,4.0,88,0.00,,,0.00,Wunderground v.1.15,2013-12-18 12:33:00,
2013-12-18 07:39:00,11.1,8.2,30.10,WNW,293,0.0,4.0,88,0.00,,,0.00,Wunderground v.1.15,2013-12-18 12:39:00,
2013-12-18 07:44:00,11.1,8.2,30.10,WNW,293,0.0,4.0,88,0.00,,,0.00,Wunderground v.1.15,2013-12-18 12:44:00,
2013-12-18 07:50:00,11.3,8.7,30.10,WNW,293,0.0,4.0,89,0.00,,,0.00,Wunderground v.1.15,2013-12-18 12:50:00,
2013-12-18 07:56:00,12.3,9.9,30.10,WNW,293,0.0,4.0,90,0.00,,,0.00,Wunderground v.1.15,2013-12-18 12:56:00,
2013-12-18 08:02:00,13.1,10.7,30.10,WNW,293,0.0,4.0,90,0.00,,,0.00,Wunderground v.1.15,2013-12-18 13:02:00,
2013-12-18 08:08:00,13.1,10.2,30.10,WNW,293,0.0,4.0,88,0.00,,,0.00,Wunderground v.1.15,2013-12-18 13:08:00,
2013-12-18 08:14:00,12.8,9.7,30.10,WNW,293,0.0,4.0,87,0.00,,,0.00,Wunderground v.1.15,2013-12-18 13:14:00,
2013-12-18 08:20:00,13.0,10.1,30.10,WNW,293,0.0,4.0,88,0.00,,,0.00,Wunderground v.1.15,2013-12-18 13:20:00,
2013-12-18 08:26:00,13.4,10.5,30.10,WNW,293,0.0,4.0,88,0.00,,,0.00,Wunderground v.1.15,2013-12-18 13:26:00,
2013-12-18 08:32:00,13.6,10.5,30.09,WNW,293,0.0,4.0,87,0.00,,,0.00,Wunderground v.1.15,2013-12-18 13:32:00,
2013-12-18 08:38:00,13.7,10.8,30.10,WNW,293,0.0,4.0,88,0.00,,,0.00,Wunderground v.1.15,2013-12-18 13:38:00,
2013-12-18 08:44:00,14.3,11.4,30.10,WNW,293,0.0,4.0,88,0.00,,,0.00,Wunderground v.1.15,2013-12-18 13:44:00,
2013-12-18 08:50:00,14.4,11.2,30.10,WNW,293,0.0,4.0,87,0.00,,,0.00,Wunderground v.1.15,2013-12-18 13:50:00,
2013-12-18 08:56:00,14.4,11.2,30.10,WNW,293,0.0,4.0,87,0.00,,,0.00,Wunderground v.1.15,2013-12-18 13:56:00,
2013-12-18 09:02:00,14.7,11.8,30.10,WNW,293,0.0,4.0,88,0.00,,,0.00,Wunderground v.1.15,2013-12-18 14:02:00,
2013-12-18 09:07:00,15.1,11.9,30.10,WNW,293,0.0,4.0,87,0.00,,,0.00,Wunderground v.1.15,2013-12-18 14:07:00,
2013-12-18 09:13:00,15.5,12.3,30.10,WNW,293,0.0,4.0,87,0.00,,,0.00,Wunderground v.1.15,2013-12-18 14:13:00,
2013-12-18 09:19:00,15.8,12.6,30.10,WNW,293,0.0,4.0,87,0.00,,,0.00,Wunderground v.1.15,2013-12-18 14:19:00,
2013-12-18 09:25:00,15.8,12.4,30.10,WNW,293,0.0,4.0,86,0.00,,,0.00,Wunderground v.1.15,2013-12-18 14:25:00,
2013-12-18 09:30:00,15.9,12.5,30.10,WNW,293,0.0,4.0,86,0.00,,,0.00,Wunderground v.1.15,2013-12-18 14:30:00,
2013-12-18 09:36:00,16.0,12.6,30.09,WNW,293,0.0,4.0,86,0.00,,,0.00,Wunderground v.1.15,2013-12-18 14:36:00,
2013-12-18 09:42:00,16.1,12.7,30.09,WNW,293,0.0,4.0,86,0.00,,,0.00,Wunderground v.1.15,2013-12-18 14:42:00,
2013-12-18 09:48:00,16.4,13.2,30.10,WNW,293,0.0,4.0,87,0.00,,,0.00,Wunderground v.1.15,2013-12-18 14:48:00,
2013-12-18 09:54:00,16.9,13.7,30.10,WNW,293,0.0,4.0,87,0.00,,,0.00,Wunderground v.1.15,2013-12-18 14:54:00,
2013-12-18 10:00:00,17.1,13.6,30.10,WNW,293,0.0,4.0,86,0.00,,,0.00,Wunderground v.1.15,2013-12-18 15:00:00,
2013-12-18 10:06:00,17.5,14.3,30.10,WNW,293,0.0,4.0,87,0.00,,,0.00,Wunderground v.1.15,2013-12-18 15:06:00,
2013-12-18 10:12:00,17.8,14.3,30.10,WNW,293,1.0,4.0,86,0.00,,,0.00,Wunderground v.1.15,2013-12-18 15:12:00,
2013-12-18 10:18:00,18.2,15.0,30.10,WNW,293,0.0,4.0,87,0.00,,,0.00,Wunderground v.1.15,2013-12-18 15:18:00,
2013-12-18 10:24:00,18.6,15.1,30.10,WNW,293,0.0,4.0,86,0.00,,,0.00,Wunderground v.1.15,2013-12-18 15:24:00,
2013-12-18 10:30:00,18.9,15.1,30.10,WNW,293,0.0,4.0,85,0.00,,,0.00,Wunderground v.1.15,2013-12-18 15:30:00,
2013-12-18 10:36:00,19.1,15.3,30.10,WNW,293,0.0,4.0,85,0.00,,,0.00,Wunderground v.1.15,2013-12-18 15:36:00,
2013-12-18 10:42:00,19.0,15.0,30.10,WNW,293,0.0,4.0,84,0.00,,,0.00,Wunderground v.1.15,2013-12-18 15:42:00,
2013-12-18 10:47:00,19.1,15.3,30.09,WNW,293,0.0,4.0,85,0.00,,,0.00,Wunderground v.1.15,2013-12-18 15:47:00,
2013-12-18 10:53:00,19.1,15.3,30.09,WNW,293,0.0,4.0,85,0.00,,,0.00,Wunderground v.1.15,2013-12-18 15:53:00,
2013-12-18 10:59:00,19.3,15.5,30.09,WNW,293,0.0,4.0,85,0.00,,,0.00,Wunderground v.1.15,2013-12-18 15:59:00,
2013-12-18 11:05:00,19.9,16.7,30.09,WNW,293,0.0,4.0,87,0.00,,,0.00,Wunderground v.1.15,2013-12-18 16:05:00,
2013-12-18 11:11:00,20.6,17.3,30.10,WNW,293,0.0,4.0,87,0.00,,,0.00,Wunderground v.1.15,2013-12-18 16:11:00,
2013-12-18 11:17:00,21.4,17.9,30.09,WNW,293,0.0,4.0,86,0.00,,,0.00,Wunderground v.1.15,2013-12-18 16:17:00,
2013-12-18 11:23:00,21.8,18.0,30.08,WNW,293,0.0,4.0,85,0.00,,,0.00,Wunderground v.1.15,2013-12-18 16:23:00,
2013-12-18 11:29:00,22.2,18.4,30.08,WNW,293,0.0,4.0,85,0.00,,,0.00,Wunderground v.1.15,2013-12-18 16:29:00,
2013-12-18 11:35:00,23.1,19.5,30.08,WNW,293,0.0,4.0,86,0.00,,,0.00,Wunderground v.1.15,2013-12-18 16:35:00,
2013-12-18 11:41:00,24.9,21.3,30.08,WNW,293,0.0,4.0,86,0.00,,,0.00,Wunderground v.1.15,2013-12-18 16:41:00,
2013-12-18 11:47:00,26.5,22.0,30.08,WNW,293,0.0,4.0,83,0.00,,,0.00,Wunderground v.1.15,2013-12-18 16:47:00,
2013-12-18 11:53:00,26.6,21.3,30.08,WNW,293,1.0,5.0,80,0.00,,,0.00,Wunderground v.1.15,2013-12-18 16:53:00,
2013-12-18 11:59:00,26.3,21.3,30.08,WNW,294,2.0,5.0,81,0.00,,,0.00,Wunderground v.1.15,2013-12-18 16:59:00,
2013-12-18 12:05:00,26.3,21.6,30.08,WNW,294,2.0,4.0,82,0.00,,,0.00,Wunderground v.1.15,2013-12-18 17:05:00,
2013-12-18 12:10:00,26.2,21.2,30.08,WNW,296,2.0,4.0,81,0.00,,,0.00,Wunderground v.1.15,2013-12-18 17:10:00,
2013-12-18 12:16:00,26.6,21.8,30.08,WNW,296,1.0,4.0,82,0.00,,,0.00,Wunderground v.1.15,2013-12-18 17:16:00,
2013-12-18 12:22:00,27.3,22.5,30.08,WNW,296,1.0,4.0,82,0.00,,,0.00,Wunderground v.1.15,2013-12-18 17:22:00,
2013-12-18 12:28:00,28.3,23.5,30.08,NW,326,3.0,6.0,82,0.00,,,0.00,Wunderground v.1.15,2013-12-18 17:28:00,
2013-12-18 12:34:00,28.6,23.2,30.08,NNW,348,5.0,6.0,80,0.00,,,0.00,Wunderground v.1.15,2013-12-18 17:34:00,
2013-12-18 12:40:00,28.8,23.1,30.07,WNW,297,6.0,8.0,79,0.00,,,0.00,Wunderground v.1.15,2013-12-18 17:40:00,
2013-12-18 12:46:00,29.2,23.2,30.07,NNW,347,7.0,9.0,78,0.00,,,0.00,Wunderground v.1.15,2013-12-18 17:46:00,
2013-12-18 12:52:00,29.8,23.5,30.07,NW,321,6.0,7.0,77,0.00,,,0.00,Wunderground v.1.15,2013-12-18 17:52:00,
2013-12-18 12:58:00,29.9,23.3,30.07,NNW,329,7.0,8.0,76,0.00,,,0.00,Wunderground v.1.15,2013-12-18 17:58:00,
2013-12-18 13:04:00,30.0,23.0,30.07,WNW,300,6.0,8.0,75,0.00,,,0.00,Wunderground v.1.15,2013-12-18 18:04:00,
2013-12-18 13:10:00,29.8,22.5,30.07,WNW,284,7.0,11.0,74,0.00,,,0.00,Wunderground v.1.15,2013-12-18 18:10:00,
2013-12-18 13:16:00,29.7,22.1,30.06,NW,314,8.0,11.0,73,0.00,,,0.00,Wunderground v.1.15,2013-12-18 18:16:00,
2013-12-18 13:22:00,29.7,22.1,30.06,NW,306,7.0,8.0,73,0.00,,,0.00,Wunderground v.1.15,2013-12-18 18:22:00,
2013-12-18 13:27:00,29.8,21.9,30.06,WNW,287,6.0,8.0,72,0.00,,,0.00,Wunderground v.1.15,2013-12-18 18:27:00,
2013-12-18 13:33:00,29.7,21.8,30.06,NW,315,6.0,10.0,72,0.00,,,0.00,Wunderground v.1.15,2013-12-18 18:33:00,
2013-12-18 13:39:00,29.5,21.6,30.07,WNW,293,6.0,10.0,72,0.00,,,0.01,Wunderground v.1.15,2013-12-18 18:39:00,
2013-12-18 13:45:00,29.4,21.8,30.07,NNW,338,5.0,9.0,73,0.00,,,0.01,Wunderground v.1.15,2013-12-18 18:45:00,
2013-12-18 13:51:00,29.6,22.0,30.07,NNW,336,3.0,4.0,73,0.00,,,0.01,Wunderground v.1.15,2013-12-18 18:51:00,
2013-12-18 13:57:00,29.9,22.3,30.06,NW,307,2.0,5.0,73,0.00,,,0.01,Wunderground v.1.15,2013-12-18 18:57:00,
2013-12-18 14:03:00,30.1,22.2,30.07,WNW,293,3.0,7.0,72,0.00,,,0.01,Wunderground v.1.15,2013-12-18 19:03:00,
2013-12-18 14:09:00,30.4,22.4,30.06,WNW,285,3.0,7.0,72,0.00,,,0.01,Wunderground v.1.15,2013-12-18 19:09:00,
2013-12-18 14:15:00,30.7,22.4,30.06,WNW,289,4.0,7.0,71,0.00,,,0.01,Wunderground v.1.15,2013-12-18 19:15:00,
2013-12-18 14:21:00,31.1,22.8,30.06,NW,306,4.0,5.0,71,0.00,,,0.01,Wunderground v.1.15,2013-12-18 19:21:00,
2013-12-18 14:27:00,30.9,22.3,30.06,West,281,5.0,11.0,70,0.00,,,0.02,Wunderground v.1.15,2013-12-18 19:27:00,
2013-12-18 14:32:00,30.7,22.4,30.06,WNW,296,6.0,6.0,71,0.00,,,0.02,Wunderground v.1.15,2013-12-18 19:32:00,
2013-12-18 14:38:00,30.6,22.3,30.07,WNW,289,6.0,7.0,71,0.00,,,0.02,Wunderground v.1.15,2013-12-18 19:38:00,
2013-12-18 14:44:00,30.7,22.4,30.07,WNW,284,5.0,7.0,71,0.00,,,0.02,Wunderground v.1.15,2013-12-18 19:44:00,
2013-12-18 14:50:00,30.8,22.5,30.07,WNW,299,4.0,9.0,71,0.00,,,0.02,Wunderground v.1.15,2013-12-18 19:50:00,
2013-12-18 14:55:00,30.8,22.2,30.07,WNW,303,4.0,9.0,70,0.00,,,0.02,Wunderground v.1.15,2013-12-18 19:55:00,
2013-12-18 15:01:00,30.8,22.2,30.07,West,273,5.0,8.0,70,0.00,,,0.02,Wunderground v.1.15,2013-12-18 20:01:00,
2013-12-18 15:07:00,31.0,22.4,30.07,WNW,284,5.0,10.0,70,0.00,,,0.02,Wunderground v.1.15,2013-12-18 20:07:00,
2013-12-18 15:13:00,31.0,22.0,30.08,NNW,329,5.0,6.0,69,0.00,,,0.02,Wunderground v.1.15,2013-12-18 20:13:00,
2013-12-18 15:19:00,31.1,22.1,30.08,WNW,299,5.0,6.0,69,0.00,,,0.02,Wunderground v.1.15,2013-12-18 20:19:00,
2013-12-18 15:25:00,31.1,21.8,30.08,NW,304,4.0,6.0,68,0.00,,,0.03,Wunderground v.1.15,2013-12-18 20:25:00,
2013-12-18 15:31:00,31.1,21.8,30.08,NW,324,4.0,6.0,68,0.00,,,0.03,Wunderground v.1.15,2013-12-18 20:31:00,
2013-12-18 15:37:00,31.0,22.0,30.08,NW,304,3.0,6.0,69,0.00,,,0.03,Wunderground v.1.15,2013-12-18 20:37:00,
2013-12-18 15:43:00,30.9,21.6,30.08,NW,304,2.0,4.0,68,0.00,,,0.03,Wunderground v.1.15,2013-12-18 20:43:00,
2013-12-18 15:49:00,30.7,21.4,30.08,WNW,286,2.0,6.0,68,0.00,,,0.03,Wunderground v.1.15,2013-12-18 20:49:00,
2013-12-18 15:55:00,30.5,21.2,30.09,WNW,288,4.0,6.0,68,0.00,,,0.03,Wunderground v.1.15,2013-12-18 20:55:00,
2013-12-18 16:01:00,30.2,21.2,30.09,WNW,287,4.0,6.0,69,0.00,,,0.03,Wunderground v.1.15,2013-12-18 21:01:00,
2013-12-18 16:07:00,29.9,21.0,30.09,NW,319,4.0,7.0,69,0.00,,,0.03,Wunderground v.1.15,2013-12-18 21:07:00,
2013-12-18 16:12:00,29.9,21.0,30.09,WNW,290,5.0,6.0,69,0.00,,,0.03,Wunderground v.1.15,2013-12-18 21:12:00,
2013-12-18 16:18:00,29.9,21.3,30.09,WNW,291,4.0,7.0,70,0.00,,,0.03,Wunderground v.1.15,2013-12-18 21:18:00,
2013-12-18 16:24:00,29.9,21.6,30.09,NW,309,3.0,5.0,71,0.00,,,0.03,Wunderground v.1.15,2013-12-18 21:24:00,
2013-12-18 16:30:00,30.0,21.4,30.09,West,281,3.0,5.0,70,0.00,,,0.03,Wunderground v.1.15,2013-12-18 21:30:00,
2013-12-18 16:36:00,30.1,21.8,30.09,WNW,284,3.0,5.0,71,0.00,,,0.03,Wunderground v.1.15,2013-12-18 21:36:00,
2013-12-18 16:42:00,30.0,21.7,30.10,WNW,284,2.0,4.0,71,0.00,,,0.03,Wunderground v.1.15,2013-12-18 21:42:00,
2013-12-18 16:48:00,29.9,21.6,30.10,WNW,284,1.0,4.0,71,0.00,,,0.03,Wunderground v.1.15,2013-12-18 21:48:00,
2013-12-18 16:54:00,29.9,21.6,30.10,WNW,284,2.0,5.0,71,0.00,,,0.03,Wunderground v.1.15,2013-12-18 21:54:00,
2013-12-18 17:00:00,29.8,21.9,30.10,West,280,3.0,4.0,72,0.00,,,0.03,Wunderground v.1.15,2013-12-18 22:00:00,
2013-12-18 17:06:00,29.9,21.6,30.11,WNW,296,4.0,10.0,71,0.00,,,0.03,Wunderground v.1.15,2013-12-18 22:06:00,
2013-12-18 17:12:00,29.9,21.6,30.11,NW,313,5.0,6.0,71,0.00,,,0.03,Wunderground v.1.15,2013-12-18 22:12:00,
2013-12-18 17:19:00,29.9,21.6,30.11,NW,308,5.0,9.0,71,0.00,,,0.03,Wunderground v.1.15,2013-12-18 22:19:00,
2013-12-18 17:25:00,29.9,21.6,30.11,WNW,300,5.0,10.0,71,0.00,,,0.03,Wunderground v.1.15,2013-12-18 22:25:00,
2013-12-18 17:31:00,30.0,22.1,30.11,WNW,294,4.0,7.0,72,0.00,,,0.03,Wunderground v.1.15,2013-12-18 22:31:00,
2013-12-18 17:37:00,29.9,22.0,30.11,West,281,5.0,9.0,72,0.00,,,0.03,Wunderground v.1.15,2013-12-18 22:37:00,
2013-12-18 17:43:00,29.8,21.9,30.12,NW,308,5.0,7.0,72,0.00,,,0.03,Wunderground v.1.15,2013-12-18 22:43:00,
2013-12-18 17:49:00,29.8,22.2,30.12,WNW,300,4.0,7.0,73,0.00,,,0.03,Wunderground v.1.15,2013-12-18 22:49:00,
2013-12-18 17:55:00,29.8,21.9,30.12,NW,312,4.0,6.0,72,0.00,,,0.03,Wunderground v.1.15,2013-12-18 22:55:00,
2013-12-18 18:01:00,29.8,21.9,30.12,WNW,287,5.0,8.0,72,0.00,,,0.03,Wunderground v.1.15,2013-12-18 23:01:00,
2013-12-18 18:07:00,29.7,21.8,30.12,WNW,302,5.0,8.0,72,0.00,,,0.03,Wunderground v.1.15,2013-12-18 23:07:00,
2013-12-18 18:13:00,29.7,21.8,30.12,WNW,284,4.0,6.0,72,0.00,,,0.03,Wunderground v.1.15,2013-12-18 23:13:00,
2013-12-18 18:19:00,29.7,21.8,30.13,WNW,294,4.0,7.0,72,0.00,,,0.03,Wunderground v.1.15,2013-12-18 23:19:00,
2013-12-18 18:25:00,29.7,22.1,30.13,NW,312,4.0,5.0,73,0.00,,,0.03,Wunderground v.1.15,2013-12-18 23:25:00,
2013-12-18 18:30:00,29.7,22.1,30.13,WNW,287,3.0,3.0,73,0.00,,,0.03,Wunderground v.1.15,2013-12-18 23:30:00,
2013-12-18 18:36:00,29.7,22.1,30.13,WNW,290,3.0,6.0,73,0.00,,,0.03,Wunderground v.1.15,2013-12-18 23:36:00,
2013-12-18 18:42:00,29.6,22.3,30.13,WNW,290,2.0,4.0,74,0.00,,,0.03,Wunderground v.1.15,2013-12-18 23:42:00,
2013-12-18 18:48:00,29.5,22.2,30.13,WNW,290,1.0,4.0,74,0.00,,,0.03,Wunderground v.1.15,2013-12-18 23:48:00,
2013-12-18 18:54:00,29.4,22.1,30.13,WNW,290,2.0,4.0,74,0.00,,,0.03,Wunderground v.1.15,2013-12-18 23:54:00,
2013-12-18 19:00:00,29.3,22.4,30.14,WNW,290,2.0,4.0,75,0.00,,,0.03,Wunderground v.1.15,2013-12-19 00:00:00,
2013-12-18 19:06:00,29.2,22.3,30.13,WNW,290,3.0,5.0,75,0.00,,,0.03,Wunderground v.1.15,2013-12-19 00:06:00,
2013-12-18 19:12:00,29.1,22.2,30.14,WNW,290,2.0,5.0,75,0.00,,,0.03,Wunderground v.1.15,2013-12-19 00:12:00,
2013-12-18 19:18:00,29.1,22.2,30.14,WNW,290,1.0,5.0,75,0.00,,,0.03,Wunderground v.1.15,2013-12-19 00:18:00,
2013-12-18 19:24:00,29.0,22.1,30.14,WNW,290,1.0,5.0,75,0.00,,,0.03,Wunderground v.1.15,2013-12-19 00:24:00,
2013-12-18 19:30:00,28.8,21.6,30.14,WNW,290,3.0,4.0,74,0.00,,,0.03,Wunderground v.1.15,2013-12-19 00:30:00,
2013-12-18 19:36:00,28.8,21.2,30.14,WNW,290,3.0,6.0,73,0.00,,,0.03,Wunderground v.1.15,2013-12-19 00:36:00,
2013-12-18 19:42:00,28.7,21.1,30.14,WNW,289,4.0,7.0,73,0.00,,,0.03,Wunderground v.1.15,2013-12-19 00:42:00,
2013-12-18 19:47:00,28.6,21.0,30.14,WNW,288,3.0,7.0,73,0.00,,,0.03,Wunderground v.1.15,2013-12-19 00:47:00,
2013-12-18 19:53:00,28.6,21.0,30.14,WNW,294,3.0,4.0,73,0.00,,,0.03,Wunderground v.1.15,2013-12-19 00:53:00,
2013-12-18 19:59:00,28.5,20.9,30.15,WNW,293,1.0,5.0,73,0.00,,,0.03,Wunderground v.1.15,2013-12-19 00:59:00,
2013-12-18 20:05:00,28.4,21.2,30.14,WNW,293,1.0,4.0,74,0.00,,,0.03,Wunderground v.1.15,2013-12-19 01:05:00,
2013-12-18 20:11:00,28.1,20.9,30.14,WNW,294,0.0,4.0,74,0.00,,,0.03,Wunderground v.1.15,2013-12-19 01:11:00,
2013-12-18 20:17:00,27.8,20.6,30.14,WNW,293,1.0,5.0,74,0.00,,,0.03,Wunderground v.1.15,2013-12-19 01:17:00,
2013-12-18 20:23:00,27.7,20.5,30.14,WNW,294,2.0,5.0,74,0.00,,,0.03,Wunderground v.1.15,2013-12-19 01:23:00,
2013-12-18 20:29:00,27.6,20.1,30.14,WNW,283,3.0,5.0,73,0.00,,,0.03,Wunderground v.1.15,2013-12-19 01:29:00,
2013-12-18 20:35:00,27.5,20.0,30.14,NW,314,4.0,6.0,73,0.00,,,0.03,Wunderground v.1.15,2013-12-19 01:35:00,
2013-12-18 20:41:00,27.6,19.8,30.14,NW,317,3.0,4.0,72,0.00,,,0.03,Wunderground v.1.15,2013-12-19 01:41:00,
2013-12-18 20:47:00,27.6,19.8,30.14,WNW,294,3.0,7.0,72,0.00,,,0.03,Wunderground v.1.15,2013-12-19 01:47:00,
2013-12-18 20:53:00,27.9,20.0,30.14,NW,317,3.0,6.0,72,0.00,,,0.03,Wunderground v.1.15,2013-12-19 01:53:00,
2013-12-18 20:59:00,28.1,19.9,30.15,NW,321,4.0,7.0,71,0.00,,,0.03,Wunderground v.1.15,2013-12-19 01:59:00,
2013-12-18 21:05:00,28.1,19.9,30.14,WNW,296,4.0,5.0,71,0.00,,,0.03,Wunderground v.1.15,2013-12-19 02:05:00,
2013-12-18 21:11:00,27.9,20.0,30.14,WNW,291,4.0,7.0,72,0.00,,,0.03,Wunderground v.1.15,2013-12-19 02:11:00,
2013-12-18 21:17:00,28.0,19.8,30.14,WNW,289,4.0,7.0,71,0.00,,,0.03,Wunderground v.1.15,2013-12-19 02:17:00,
2013-12-18 21:23:00,28.0,20.1,30.14,NW,317,5.0,9.0,72,0.00,,,0.03,Wunderground v.1.15,2013-12-19 02:23:00,
2013-12-18 21:29:00,28.0,20.1,30.14,NW,319,6.0,11.0,72,0.00,,,0.03,Wunderground v.1.15,2013-12-19 02:29:00,
2013-12-18 21:35:00,28.1,20.2,30.14,NW,311,6.0,10.0,72,0.00,,,0.03,Wunderground v.1.15,2013-12-19 02:35:00,
2013-12-18 21:41:00,28.2,20.7,30.14,WNW,285,5.0,5.0,73,0.00,,,0.03,Wunderground v.1.15,2013-12-19 02:41:00,
2013-12-18 21:47:00,28.5,20.6,30.15,NW,313,5.0,11.0,72,0.00,,,0.03,Wunderground v.1.15,2013-12-19 02:47:00,
2013-12-18 21:53:00,28.7,20.5,30.15,NW,308,8.0,15.0,71,0.00,,,0.03,Wunderground v.1.15,2013-12-19 02:53:00,
2013-12-18 21:59:00,28.7,20.8,30.15,WNW,292,9.0,15.0,72,0.00,,,0.03,Wunderground v.1.15,2013-12-19 02:59:00,
2013-12-18 22:04:00,28.7,20.8,30.15,NW,307,8.0,9.0,72,0.00,,,0.03,Wunderground v.1.15,2013-12-19 03:04:00,
2013-12-18 22:10:00,28.6,20.7,30.15,WNW,294,7.0,7.0,72,0.00,,,0.03,Wunderground v.1.15,2013-12-19 03:10:00,
2013-12-18 22:16:00,28.3,20.7,30.15,West,279,7.0,11.0,73,0.00,,,0.03,Wunderground v.1.15,2013-12-19 03:16:00,
2013-12-18 22:22:00,28.3,20.7,30.15,WNW,293,8.0,9.0,73,0.00,,,0.03,Wunderground v.1.15,2013-12-19 03:22:00,
2013-12-18 22:28:00,28.2,21.0,30.14,WNW,300,9.0,11.0,74,0.00,,,0.03,Wunderground v.1.15,2013-12-19 03:28:00,
2013-12-18 22:34:00,28.3,20.7,30.13,WNW,288,9.0,11.0,73,0.00,,,0.03,Wunderground v.1.15,2013-12-19 03:34:00,
2013-12-18 22:40:00,28.1,20.9,30.14,WNW,294,8.0,10.0,74,0.00,,,0.03,Wunderground v.1.15,2013-12-19 03:40:00,
2013-12-18 22:46:00,28.1,21.2,30.14,WNW,300,8.0,11.0,75,0.00,,,0.03,Wunderground v.1.15,2013-12-19 03:46:00,
2013-12-18 22:52:00,28.0,21.4,30.14,NW,307,7.0,8.0,76,0.00,,,0.03,Wunderground v.1.15,2013-12-19 03:52:00,
2013-12-18 22:58:00,28.0,21.4,30.15,WNW,301,7.0,11.0,76,0.00,,,0.03,Wunderground v.1.15,2013-12-19 03:58:00,
2013-12-18 23:04:00,28.1,21.8,30.15,NW,304,8.0,10.0,77,0.00,,,0.03,Wunderground v.1.15,2013-12-19 04:04:00,
2013-12-18 23:10:00,28.3,22.0,30.15,West,280,8.0,10.0,77,0.00,,,0.03,Wunderground v.1.15,2013-12-19 04:10:00,
2013-12-18 23:16:00,28.5,22.2,30.15,WNW,298,9.0,12.0,77,0.00,,,0.03,Wunderground v.1.15,2013-12-19 04:16:00,
2013-12-18 23:22:00,28.6,22.3,30.15,WNW,298,8.0,9.0,77,0.00,,,0.03,Wunderground v.1.15,2013-12-19 04:22:00,
2013-12-18 23:27:00,28.7,22.4,30.14,West,273,8.0,11.0,77,0.00,,,0.03,Wunderground v.1.15,2013-12-19 04:27:00,
2013-12-18 23:33:00,28.7,22.7,30.14,NW,304,8.0,10.0,78,0.00,,,0.03,Wunderground v.1.15,2013-12-19 04:33:00,
2013-12-18 23:39:00,28.8,22.8,30.14,WNW,303,9.0,13.0,78,0.00,,,0.03,Wunderground v.1.15,2013-12-19 04:39:00,
2013-12-18 23:45:00,28.8,22.8,30.14,WNW,288,9.0,11.0,78,0.00,,,0.03,Wunderground v.1.15,2013-12-19 04:45:00,
2013-12-18 23:51:00,28.8,22.8,30.15,WNW,299,9.0,9.0,78,0.00,,,0.03,Wunderground v.1.15,2013-12-19 04:51:00,
2013-12-18 23:57:00,28.8,22.8,30.15,WNW,297,9.0,13.0,78,0.00,,,0.00,Wunderground v.1.15,2013-12-19 04:57:00,